Santa Gabriela

PY-0516 · Paraguay

METAR history PY-0516 · Santa Gabriela

Below you see METARs of the last few days. Select a year to browse through older METARs, from the year 2007 onwards.

July 15, 2024

Time Code Weather Temp. Visibility Ceiling Wind METAR/SPECI
17:00
M
14 °C 10 km+ 1,400 ft 150° 150° 2 kt METAR SGCO 152100Z 15002KT 9999 OVC014 14/09 Q1025
14:00
M
14 °C 10 km+ 1,000 ft 150° 150° 10 kt METAR SGCO 151800Z 15010KT 9999 OVC010 14/08 Q1025
11:00
M
14 °C 10 km+ 1,000 ft 160° 160° 4 kt METAR SGCO 151500Z 16004KT 9999 OVC010 14/09 Q1028
08:00
M
12 °C 10 km+ 1,000 ft 160° 160° 2 kt METAR SGCO 151200Z 16002KT 9999 BKN010 12/10 Q1027
05:00
M
12 °C 10 km+ 2,000 ft 360° 360° 0 kt METAR SGCO 150900Z 00000KT 9999 OVC020 12/10 Q1025

July 14, 2024

Time Code Weather Temp. Visibility Ceiling Wind METAR/SPECI
17:00
V
16 °C 10 km+ - 160° 160° 10 kt METAR SGCO 142100Z 16010KT 9999 FEW025 16/07 Q1024
14:00
V
16 °C 10 km+ - 180° 180° 6 kt METAR SGCO 141800Z 18006KT 9999 FEW018 FEW080 16/06 Q1024
11:00
V
12 °C 10 km+ - 180° 180° 8 kt METAR SGCO 141500Z 18008KT 9999 SCT007 SCT070 12/10 Q1027
08:00
M
8 °C 10 km+ 2,700 ft 180° 180° 1 kt METAR SGCO 141200Z 18001KT 9999 BKN027 08/06Q1026
05:00
V
8 °C 10 km+ - 360° 360° 0 kt METAR SGCO 140900Z 00000KT 9999 SCT010 08/08Q1025

July 13, 2024

Time Code Weather Temp. Visibility Ceiling Wind METAR/SPECI
20:00
I
10 °C 10 km+ 600 ft 170° 170° 2 kt METAR SGCO 140000Z 17002KT 9999 BKN006 OVC020 10/09 Q1027
17:00
I
10 °C 10 km+ 600 ft 170° 170° 3 kt METAR SGCO 132100Z 17003KT 9999 BKN006 OVC020 10/08 Q1027
14:00
I
10 °C 10 km+ 700 ft 200° 200° 6 kt METAR SGCO 131800Z 20006KT 9999 BKN007 OVC020 10/09 Q1027
11:00
M
10 °C 10 km+ 1,800 ft 230° 230° 3 kt METAR SGCO 131500Z 23003KT 9999 SCT007 OVC018 10/09 Q1029
08:00
M
9 °C 9 km 1,500 ft 230° 230° 2 kt METAR SGCO 131200Z 23002KT 9000 -DZ FEW007 OVC015 09/08 Q1028
05:00
I
9 °C 8 km 700 ft 180° 180° 2 kt METAR SGCO 130900Z 18002KT 8000 -DZ OVC007 09/08Q1027
Report a change